Schleswig Jagel, Germany

2:19 AM CET on December 23, 2014 (GMT +0100)
ISCHLESW61 | Change Station
CLOSE
Current Station
Personal Weather Station
Location: Treia, SCHLESWIG-HOLSTEIN
Elevation: 15 ft
Nearby Weather Stations

Elev 15 ft 54.51 °N, 9.31 °E | Updated 3 minutes ago

Rain
Rain Mist
48.0 °F
Feels Like 48 °F
N
0.0
Wind Variable Wind from North
Gusts 0.0 mph

Today
High -- | Low -- °F
--% Chance of Precip.
Yesterday
High -- | Low -- °F
Precip. -- in
8:42 AM 3:59 PM
New Moon, 1% visible
Pressure 29.71 in
Visibility 3.1 miles
Clouds Mostly Cloudy 1000 ft
Windchill 48 °F
Dew Point 48 °F
Humidity 99%
Rainfall 0.00 in
Snow Depth Not available.
UV 0.0 out of 12
Pollen Not available.
Air Quality Not available.
Flu Activity Not available.
METAR ETNH 230020Z 27022KT 5000 -DZRA BR BKN010 09/09 Q1006 GRN

More Conditions Fewer Conditions

Pressure 29.71 in
Visibility 3.1 miles
Clouds Mostly Cloudy 1000 ft
Windchill 48 °F
Dew Point 48 °F
Humidity 99%
Rainfall 0.00 in
Snow Depth Not available.
UV 0.0 out of 12
Pollen Not available.
Air Quality Not available.
Flu Activity Not available.
METAR ETNH 230020Z 27022KT 5000 -DZRA BR BKN010 09/09 Q1006 GRN

More Conditions Fewer Conditions

10-Day Weather Forecast

Almanac

Astronomy

Dec. 23, 2014 Rise Set
Actual Time
Civil Twilight
Nautical Twilight
Astronomical Twilight
Moon
Length of Visible Light
Length of Day
Tomorrow will be .
, % of the Moon is Illuminated

Today's Extremes

Country Highs Country Lows

Community

WunderPhotos

Upload Photos

1,779,745 photos uploaded!

WunderBlogs® & News

Nearby

Air Quality

  Air Quality AQ Index Pollutant
Not available.

Snow Depth

Station Depth Elevation

Earthquake Activity

City Distance Mag. Time & Date
Minimum magnitude displayed is 2.5.

Coastal Water Temperatures

Place Temperature

Nearby Weather Stations